Time;durP1;ratioP1;P1;durP2;ratioP2;P2;SDS_P1;SDS_P2;PMS_P1;PMS_P2;Temp;Humidity;BMP_temperature;BMP_pressure;BME280_temperature;BME280_humidity;BME280_pressure;Samples;Min_cycle;Max_cycle;Signal;HPM_P1;HPM_P2
2024/01/16 00:00:06;;;;;;;4.78;3.30;;;2.30;82.30;;;;;;5096312;28;20048;-70
2024/01/16 00:02:32;;;;;;;5.72;3.63;;;2.30;83.50;;;;;;5095962;28;20024;-71
2024/01/16 00:04:58;;;;;;;5.65;3.15;;;2.30;83.70;;;;;;5096229;28;20026;-70
2024/01/16 00:07:23;;;;;;;4.85;3.53;;;2.20;84.50;;;;;;5095047;28;20116;-71
2024/01/16 00:09:52;;;;;;;6.15;3.80;;;2.20;85.30;;;;;;5095522;28;20472;-71
2024/01/16 00:12:18;;;;;;;6.38;3.40;;;2.10;85.80;;;;;;5094723;28;20530;-71
2024/01/16 00:14:43;;;;;;;4.18;3.30;;;2.10;86.30;;;;;;5098966;28;20027;-71
2024/01/16 00:17:09;;;;;;;5.13;3.50;;;2.10;87.10;;;;;;5116012;28;20024;-70
2024/01/16 00:19:35;;;;;;;4.80;3.47;;;2.00;87.30;;;;;;5104382;28;20028;-71
2024/01/16 00:22:02;;;;;;;5.88;3.30;;;2.00;87.50;;;;;;5095506;28;20110;-70
2024/01/16 00:24:28;;;;;;;4.32;3.30;;;2.00;88.10;;;;;;5095366;28;20020;-69
2024/01/16 00:26:54;;;;;;;5.47;3.83;;;1.90;88.50;;;;;;5094872;28;20028;-70
2024/01/16 00:29:20;;;;;;;6.22;3.70;;;1.90;88.40;;;;;;5095223;28;20032;-70
2024/01/16 00:31:45;;;;;;;6.20;3.58;;;1.90;87.90;;;;;;5093542;28;20115;-70
2024/01/16 00:34:11;;;;;;;6.25;4.53;;;1.90;87.70;;;;;;5094855;28;20028;-70
2024/01/16 00:36:37;;;;;;;8.43;4.03;;;1.90;87.80;;;;;;5094816;28;20115;-70
2024/01/16 00:39:03;;;;;;;5.55;3.85;;;1.90;87.60;;;;;;5094702;28;20111;-71
2024/01/16 00:41:29;;;;;;;4.38;2.80;;;1.90;87.90;;;;;;5094066;28;20028;-70
2024/01/16 00:43:54;;;;;;;5.68;3.53;;;1.90;87.40;;;;;;5094773;28;20039;-70
2024/01/16 00:46:20;;;;;;;4.72;3.17;;;1.80;87.30;;;;;;5094342;28;20499;-70
2024/01/16 00:48:46;;;;;;;5.10;3.38;;;1.80;87.00;;;;;;5094975;28;20062;-71
2024/01/16 00:51:12;;;;;;;4.82;3.00;;;1.80;86.90;;;;;;5095169;28;20484;-71
2024/01/16 00:53:42;;;;;;;8.07;3.85;;;1.80;86.80;;;;;;5094934;28;20032;-71
2024/01/16 00:56:08;;;;;;;7.68;3.75;;;1.70;86.60;;;;;;5093820;28;20039;-70
2024/01/16 00:58:33;;;;;;;4.75;3.55;;;1.70;86.80;;;;;;5095233;28;20027;-70
2024/01/16 01:00:59;;;;;;;4.97;3.50;;;1.80;86.80;;;;;;5094860;28;20052;-70
2024/01/16 01:03:25;;;;;;;6.13;3.42;;;1.70;86.80;;;;;;5095010;28;20368;-70
2024/01/16 01:05:50;;;;;;;4.93;3.60;;;1.70;87.00;;;;;;5094206;28;20031;-70
2024/01/16 01:08:16;;;;;;;6.32;3.65;;;1.80;87.00;;;;;;5094162;28;20028;-69
2024/01/16 01:10:42;;;;;;;3.63;2.90;;;1.80;86.30;;;;;;5093173;28;20033;-70
2024/01/16 01:13:08;;;;;;;5.85;3.78;;;1.80;86.10;;;;;;5094499;28;20044;-70
2024/01/16 01:15:33;;;;;;;6.47;3.97;;;1.80;85.70;;;;;;5094647;28;20372;-71
2024/01/16 01:17:59;;;;;;;8.20;3.67;;;1.80;85.30;;;;;;5093915;28;20082;-70
2024/01/16 01:20:25;;;;;;;7.95;3.40;;;1.80;85.20;;;;;;5092863;28;20063;-70
2024/01/16 01:22:51;;;;;;;5.28;3.78;;;1.80;85.30;;;;;;5092544;28;20118;-70
2024/01/16 01:25:16;;;;;;;5.72;3.65;;;1.80;85.40;;;;;;5094435;28;20103;-70
2024/01/16 01:27:42;;;;;;;6.00;3.10;;;1.80;85.00;;;;;;5093605;28;20028;-70
2024/01/16 01:30:11;;;;;;;4.93;3.70;;;1.80;84.60;;;;;;5094378;28;20024;-70
2024/01/16 01:32:38;;;;;;;4.90;3.50;;;1.80;84.30;;;;;;5094049;28;20149;-70
2024/01/16 01:35:04;;;;;;;5.45;3.38;;;1.80;84.50;;;;;;5094208;28;20055;-70
2024/01/16 01:37:30;;;;;;;7.07;3.50;;;1.80;84.30;;;;;;5093687;28;20028;-71
2024/01/16 01:39:55;;;;;;;7.63;4.20;;;1.80;84.50;;;;;;5093371;28;20436;-71
2024/01/16 01:42:21;;;;;;;4.65;3.33;;;1.80;84.30;;;;;;5093540;28;20120;-69
2024/01/16 01:44:47;;;;;;;5.43;3.58;;;1.80;84.20;;;;;;5093446;28;20449;-69
2024/01/16 01:47:13;;;;;;;6.95;3.70;;;1.80;83.90;;;;;;5092278;28;20349;-70
2024/01/16 01:49:39;;;;;;;7.18;3.75;;;1.80;83.50;;;;;;5093341;28;20024;-70
2024/01/16 01:52:05;;;;;;;7.63;4.20;;;1.80;83.60;;;;;;5093209;28;20024;-70
2024/01/16 01:54:34;;;;;;;6.10;3.65;;;1.80;83.60;;;;;;5093357;28;20024;-70
2024/01/16 01:57:00;;;;;;;4.85;3.75;;;1.80;83.10;;;;;;5091834;28;20190;-70
2024/01/16 01:59:27;;;;;;;6.80;4.07;;;1.80;83.10;;;;;;5092010;28;20135;-70
2024/01/16 02:01:53;;;;;;;6.03;4.20;;;1.70;83.00;;;;;;5093161;28;20052;-71
2024/01/16 02:04:20;;;;;;;6.32;3.65;;;1.70;82.80;;;;;;5093699;28;20020;-69
2024/01/16 02:06:45;;;;;;;4.05;3.15;;;1.70;83.00;;;;;;5092867;28;20111;-71
2024/01/16 02:09:13;;;;;;;5.05;3.28;;;1.70;82.80;;;;;;5093388;28;20119;-71
2024/01/16 02:11:39;;;;;;;6.18;3.55;;;1.70;82.50;;;;;;5093545;28;20028;-70
2024/01/16 02:14:05;;;;;;;5.80;3.63;;;1.70;82.50;;;;;;5102893;28;20023;-69
2024/01/16 02:16:38;;;;;;;4.45;3.67;;;1.60;82.10;;;;;;5113731;28;20057;-70
2024/01/16 02:19:04;;;;;;;6.10;3.50;;;1.70;82.00;;;;;;5113157;28;20091;-70
2024/01/16 02:21:51;;;;;;;5.00;3.75;;;1.60;82.00;;;;;;5113510;28;20143;-71
2024/01/16 02:24:19;;;;;;;6.97;3.80;;;1.70;81.90;;;;;;5113457;28;20027;-70
2024/01/16 02:26:44;;;;;;;4.97;3.10;;;1.60;81.70;;;;;;5108343;28;20028;-70
2024/01/16 02:29:10;;;;;;;4.93;3.63;;;1.60;81.60;;;;;;5092663;28;20034;-70
2024/01/16 02:31:36;;;;;;;5.50;3.78;;;1.60;81.70;;;;;;5092832;28;20119;-70
2024/01/16 02:34:03;;;;;;;5.68;3.90;;;1.60;81.70;;;;;;5092215;28;20020;-70
2024/01/16 02:36:30;;;;;;;7.65;3.70;;;1.60;81.60;;;;;;5090590;28;20039;-70
2024/01/16 02:38:55;;;;;;;5.20;3.45;;;1.60;81.70;;;;;;5092409;28;20032;-69
2024/01/16 02:41:21;;;;;;;7.15;3.83;;;1.60;81.80;;;;;;5092644;28;20105;-70
2024/01/16 02:43:47;;;;;;;6.40;3.78;;;1.50;81.60;;;;;;5092549;28;20030;-70
2024/01/16 02:46:16;;;;;;;7.78;3.85;;;1.50;81.70;;;;;;5092521;28;20032;-70
2024/01/16 02:48:42;;;;;;;7.40;3.85;;;1.50;81.80;;;;;;5092584;28;20047;-69
2024/01/16 02:51:08;;;;;;;7.38;3.72;;;1.50;82.00;;;;;;5092517;28;20077;-71
2024/01/16 02:53:33;;;;;;;5.05;3.47;;;1.50;82.00;;;;;;5092412;28;20020;-71
2024/01/16 02:55:59;;;;;;;4.63;3.70;;;1.50;81.90;;;;;;5090664;28;20457;-71
2024/01/16 02:58:27;;;;;;;5.82;3.67;;;1.40;81.80;;;;;;5092838;28;20043;-70
2024/01/16 03:00:52;;;;;;;6.25;3.05;;;1.50;81.80;;;;;;5090245;28;20126;-70
2024/01/16 03:03:18;;;;;;;6.47;3.80;;;1.40;81.60;;;;;;5092486;28;20030;-70
2024/01/16 03:05:44;;;;;;;4.90;3.40;;;1.50;81.70;;;;;;5092481;28;20116;-70
2024/01/16 03:08:10;;;;;;;5.63;3.65;;;1.40;81.60;;;;;;5073834;28;20472;-70
2024/01/16 03:10:36;;;;;;;6.45;3.70;;;1.40;81.40;;;;;;5091979;28;20337;-70
2024/01/16 03:13:02;;;;;;;5.93;3.65;;;1.40;81.30;;;;;;5091892;28;20028;-70
2024/01/16 03:15:30;;;;;;;6.00;3.53;;;1.40;81.40;;;;;;5092587;28;20448;-70
2024/01/16 03:17:56;;;;;;;4.97;3.30;;;1.40;81.60;;;;;;5091894;28;20388;-70
2024/01/16 03:20:23;;;;;;;5.93;3.60;;;1.40;81.60;;;;;;5092402;28;20471;-69
2024/01/16 03:22:48;;;;;;;6.78;3.42;;;1.40;81.50;;;;;;5090368;28;20376;-70
2024/01/16 03:25:14;;;;;;;5.60;3.63;;;1.30;81.30;;;;;;5092190;28;20032;-72
2024/01/16 03:27:40;;;;;;;5.28;3.67;;;1.30;81.20;;;;;;5090742;28;20087;-70
2024/01/16 03:30:08;;;;;;;6.15;3.58;;;1.40;81.50;;;;;;5091425;28;20032;-70
2024/01/16 03:32:34;;;;;;;6.13;3.75;;;1.30;81.60;;;;;;5091498;28;20020;-70
2024/01/16 03:34:59;;;;;;;6.13;3.90;;;1.30;81.60;;;;;;5091592;28;20028;-70
2024/01/16 03:37:25;;;;;;;5.78;3.58;;;1.30;81.70;;;;;;5091986;28;20136;-70
2024/01/16 03:39:51;;;;;;;6.78;3.53;;;1.30;81.80;;;;;;5091280;28;20067;-70
2024/01/16 03:42:16;;;;;;;5.97;3.55;;;1.30;81.90;;;;;;5091995;28;20020;-70
2024/01/16 03:44:42;;;;;;;6.82;3.58;;;1.30;81.90;;;;;;5091927;28;20095;-70
2024/01/16 03:47:08;;;;;;;5.03;3.45;;;1.30;82.00;;;;;;5091437;28;20032;-71
2024/01/16 03:49:34;;;;;;;5.78;3.38;;;1.30;81.90;;;;;;5092057;28;20081;-70
2024/01/16 03:52:00;;;;;;;7.20;3.10;;;1.30;82.00;;;;;;5091448;28;20032;-70
2024/01/16 03:54:26;;;;;;;6.55;3.83;;;1.30;82.10;;;;;;5091492;28;20107;-70
2024/01/16 03:56:53;;;;;;;6.03;3.13;;;1.30;81.80;;;;;;5091122;28;20101;-72
2024/01/16 03:59:18;;;;;;;6.03;3.38;;;1.30;82.00;;;;;;5091522;28;20048;-71
2024/01/16 04:01:45;;;;;;;6.50;3.78;;;1.30;81.90;;;;;;5091575;28;20111;-71
2024/01/16 04:04:11;;;;;;;8.25;3.40;;;1.30;82.00;;;;;;5089304;28;20174;-70
2024/01/16 04:06:37;;;;;;;5.40;3.35;;;1.30;81.70;;;;;;5091345;28;20074;-70
2024/01/16 04:09:03;;;;;;;6.88;3.50;;;1.30;81.60;;;;;;5090054;28;20135;-71
2024/01/16 04:11:29;;;;;;;4.55;2.85;;;1.30;81.50;;;;;;5091489;28;20047;-70
2024/01/16 04:13:55;;;;;;;4.30;3.25;;;1.30;81.30;;;;;;5091165;28;20031;-69
2024/01/16 04:16:21;;;;;;;6.93;3.60;;;1.30;81.00;;;;;;5091521;28;20024;-69
2024/01/16 04:18:47;;;;;;;5.07;3.35;;;1.30;80.80;;;;;;5095106;28;20031;-70
2024/01/16 04:21:12;;;;;;;6.30;3.30;;;1.30;80.50;;;;;;5111333;28;20423;-71
2024/01/16 04:23:38;;;;;;;5.00;3.22;;;1.30;80.50;;;;;;5091890;28;20492;-70
2024/01/16 04:26:04;;;;;;;4.50;3.08;;;1.30;80.40;;;;;;5091062;28;20165;-70
2024/01/16 04:28:29;;;;;;;5.38;3.10;;;1.30;80.20;;;;;;5091329;28;20067;-70
2024/01/16 04:30:55;;;;;;;6.18;3.40;;;1.30;80.00;;;;;;5090985;28;20089;-71
2024/01/16 04:33:21;;;;;;;6.85;3.30;;;1.30;79.50;;;;;;5091268;28;20024;-71
2024/01/16 04:35:47;;;;;;;6.53;3.25;;;1.30;79.80;;;;;;5091368;28;20024;-70
2024/01/16 04:38:13;;;;;;;6.72;3.17;;;1.30;79.10;;;;;;5089584;28;20024;-69
2024/01/16 04:40:38;;;;;;;6.43;3.17;;;1.30;78.70;;;;;;5090570;28;20423;-70
2024/01/16 04:43:04;;;;;;;4.38;3.00;;;1.30;78.50;;;;;;5089563;28;20064;-70
2024/01/16 04:45:29;;;;;;;4.13;3.13;;;1.30;78.20;;;;;;5093465;28;20043;-70
2024/01/16 04:47:55;;;;;;;5.28;2.97;;;1.30;77.70;;;;;;5094457;28;20028;-74
2024/01/16 04:50:21;;;;;;;5.35;3.00;;;1.30;77.70;;;;;;5093473;28;20090;-71
2024/01/16 04:52:47;;;;;;;5.38;3.00;;;1.30;77.30;;;;;;5094788;28;20092;-70
2024/01/16 04:55:12;;;;;;;5.00;2.65;;;1.40;77.00;;;;;;5094224;28;20093;-71
2024/01/16 04:57:38;;;;;;;4.57;2.40;;;1.40;77.20;;;;;;5095018;28;20060;-70
2024/01/16 05:00:07;;;;;;;6.70;2.67;;;1.40;76.90;;;;;;5093934;28;20040;-69
2024/01/16 05:02:33;;;;;;;6.25;2.75;;;1.40;76.80;;;;;;5094754;28;20080;-69
2024/01/16 05:04:59;;;;;;;4.70;2.80;;;1.40;77.10;;;;;;5094148;28;20028;-71
2024/01/16 05:07:26;;;;;;;5.78;2.55;;;1.30;77.00;;;;;;5094450;28;20024;-70
2024/01/16 05:09:52;;;;;;;4.90;2.78;;;1.30;77.00;;;;;;5094192;28;20481;-71
2024/01/16 05:12:18;;;;;;;3.67;2.28;;;1.30;77.50;;;;;;5093896;28;20032;-71
2024/01/16 05:14:43;;;;;;;5.90;2.33;;;1.30;76.70;;;;;;5094179;28;20024;-70
2024/01/16 05:17:09;;;;;;;5.80;2.80;;;1.30;76.60;;;;;;5093638;28;20028;-71
2024/01/16 05:19:34;;;;;;;4.68;2.78;;;1.30;76.30;;;;;;5093986;28;20024;-70
2024/01/16 05:22:00;;;;;;;3.85;2.22;;;1.40;76.30;;;;;;5094122;28;20035;-70
2024/01/16 05:24:25;;;;;;;3.25;2.28;;;1.30;75.80;;;;;;5094414;28;20107;-70
2024/01/16 05:26:51;;;;;;;4.00;2.20;;;1.40;75.70;;;;;;5093895;28;20460;-70
2024/01/16 05:29:18;;;;;;;2.72;1.98;;;1.40;75.60;;;;;;5093541;28;20024;-70
2024/01/16 05:31:44;;;;;;;5.57;2.08;;;1.40;75.20;;;;;;5093845;28;20051;-70
2024/01/16 05:34:10;;;;;;;4.13;2.15;;;1.40;75.00;;;;;;5092290;28;20024;-70
2024/01/16 05:36:37;;;;;;;6.00;2.42;;;1.40;75.10;;;;;;5094276;28;20032;-70
2024/01/16 05:39:02;;;;;;;2.88;1.80;;;1.40;74.30;;;;;;5093468;28;20032;-70
2024/01/16 05:41:33;;;;;;;7.15;1.73;;;1.40;73.70;;;;;;5093671;28;20479;-71
2024/01/16 05:43:59;;;;;;;5.50;1.77;;;1.40;73.70;;;;;;5093737;28;20020;-71
2024/01/16 05:46:25;;;;;;;3.08;1.95;;;1.50;73.60;;;;;;5093233;28;20079;-70
2024/01/16 05:48:50;;;;;;;5.53;2.00;;;1.40;73.50;;;;;;5093668;28;20302;-71
2024/01/16 05:51:16;;;;;;;4.65;1.80;;;1.50;73.40;;;;;;5092961;28;20034;-71
2024/01/16 05:53:42;;;;;;;3.63;1.83;;;1.50;73.20;;;;;;5092204;28;20461;-71
2024/01/16 05:56:07;;;;;;;4.55;1.83;;;1.50;72.60;;;;;;5092583;28;20032;-70
2024/01/16 05:58:38;;;;;;;8.45;2.00;;;1.50;72.80;;;;;;5092397;28;20085;-71
2024/01/16 06:01:04;;;;;;;2.72;1.92;;;1.50;72.80;;;;;;5093358;28;20044;-70
2024/01/16 06:03:30;;;;;;;4.20;1.83;;;1.50;72.50;;;;;;5092331;28;20123;-70
2024/01/16 06:05:56;;;;;;;7.93;2.10;;;1.50;72.20;;;;;;5093267;28;20107;-70
2024/01/16 06:08:21;;;;;;;3.38;1.80;;;1.50;72.00;;;;;;5092561;28;20482;-71
2024/01/16 06:10:47;;;;;;;3.10;1.55;;;1.50;71.90;;;;;;5093226;28;20035;-70
2024/01/16 06:13:13;;;;;;;4.20;1.63;;;1.50;72.00;;;;;;5092977;28;20027;-70
2024/01/16 06:15:39;;;;;;;3.08;1.50;;;1.50;71.70;;;;;;5092749;28;20074;-70
2024/01/16 06:18:05;;;;;;;3.05;1.63;;;1.50;71.70;;;;;;5092309;28;20032;-69
2024/01/16 06:20:32;;;;;;;6.07;1.88;;;1.50;71.60;;;;;;5092681;28;20429;-70
2024/01/16 06:22:57;;;;;;;3.40;1.67;;;1.50;71.50;;;;;;5092787;28;20038;-71
2024/01/16 06:25:23;;;;;;;3.10;1.60;;;1.50;71.50;;;;;;5092521;28;20394;-71
2024/01/16 06:27:49;;;;;;;4.93;1.80;;;1.60;71.30;;;;;;5092875;28;20119;-70
2024/01/16 06:30:14;;;;;;;4.80;1.55;;;1.50;71.40;;;;;;5090849;28;20516;-71
2024/01/16 06:32:40;;;;;;;5.45;1.75;;;1.50;71.30;;;;;;5092302;28;20040;-70
2024/01/16 06:35:06;;;;;;;4.40;2.05;;;1.60;71.20;;;;;;5092146;28;20022;-71
2024/01/16 06:37:31;;;;;;;3.60;1.60;;;1.60;71.10;;;;;;5092638;28;20103;-71
2024/01/16 06:39:57;;;;;;;7.90;1.80;;;1.50;71.10;;;;;;5092362;28;20053;-70
2024/01/16 06:42:22;;;;;;;7.25;1.90;;;1.60;71.00;;;;;;5091633;28;20043;-70
2024/01/16 06:44:48;;;;;;;2.83;1.38;;;1.60;71.10;;;;;;5092618;28;20437;-70
2024/01/16 06:47:14;;;;;;;3.13;1.77;;;1.60;71.20;;;;;;5091123;28;20035;-71
2024/01/16 06:49:40;;;;;;;6.18;1.52;;;1.50;71.00;;;;;;5092016;28;20020;-70
2024/01/16 06:52:08;;;;;;;4.20;1.92;;;1.60;71.70;;;;;;5092728;28;20512;-70
2024/01/16 06:54:33;;;;;;;3.10;1.70;;;1.60;71.10;;;;;;5092431;28;20051;-69
2024/01/16 06:56:59;;;;;;;4.07;1.58;;;1.60;71.00;;;;;;5092023;28;20123;-70
2024/01/16 06:59:25;;;;;;;2.58;1.60;;;1.60;70.90;;;;;;5091607;28;20048;-71
2024/01/16 07:01:51;;;;;;;4.35;1.77;;;1.60;70.90;;;;;;5092094;28;20067;-69
2024/01/16 07:04:17;;;;;;;6.65;1.92;;;1.60;71.00;;;;;;5091893;28;20058;-71
2024/01/16 07:06:43;;;;;;;7.97;1.65;;;1.50;70.90;;;;;;5091705;28;20020;-70
2024/01/16 07:09:10;;;;;;;1.98;1.40;;;1.60;70.50;;;;;;5091323;28;20077;-71
2024/01/16 07:11:37;;;;;;;5.47;1.90;;;1.60;70.20;;;;;;5092115;28;20035;-70
2024/01/16 07:14:03;;;;;;;4.60;1.45;;;1.60;70.30;;;;;;5092050;28;20020;-70
2024/01/16 07:16:29;;;;;;;5.95;1.75;;;1.60;70.10;;;;;;5091324;28;20035;-70
2024/01/16 07:18:55;;;;;;;3.55;1.65;;;1.60;69.90;;;;;;5091536;28;20024;-70
2024/01/16 07:21:21;;;;;;;4.78;1.80;;;1.60;69.90;;;;;;5091095;28;20133;-70
2024/01/16 07:23:47;;;;;;;8.27;1.45;;;1.60;69.70;;;;;;5091444;28;20321;-70
2024/01/16 07:26:13;;;;;;;6.47;1.83;;;1.60;69.60;;;;;;5091527;28;20020;-71
2024/01/16 07:28:38;;;;;;;2.72;1.63;;;1.70;69.80;;;;;;5091826;28;20040;-69
2024/01/16 07:31:05;;;;;;;5.70;1.63;;;1.70;69.70;;;;;;5091854;28;20024;-69
2024/01/16 07:33:30;;;;;;;2.80;1.33;;;1.70;69.50;;;;;;5091383;28;20120;-71
2024/01/16 07:35:56;;;;;;;4.30;1.50;;;1.70;69.50;;;;;;5087965;28;20103;-70
2024/01/16 07:38:22;;;;;;;9.15;1.70;;;1.70;69.50;;;;;;5091126;28;20036;-70
2024/01/16 07:40:47;;;;;;;3.67;1.60;;;1.70;69.60;;;;;;5091563;28;20016;-70
2024/01/16 07:43:13;;;;;;;5.82;2.00;;;1.70;69.70;;;;;;5091011;28;20429;-71
2024/01/16 07:45:39;;;;;;;6.43;2.05;;;1.70;69.40;;;;;;5091395;28;20028;-70
2024/01/16 07:48:05;;;;;;;8.07;1.88;;;1.80;69.50;;;;;;5090122;28;20465;-70
2024/01/16 07:50:30;;;;;;;3.22;1.40;;;1.80;69.30;;;;;;5091317;28;20028;-71
2024/01/16 07:52:56;;;;;;;4.85;1.77;;;1.80;69.10;;;;;;5091009;28;20034;-72
2024/01/16 07:55:21;;;;;;;4.10;1.73;;;1.80;69.10;;;;;;5091000;28;20380;-70
2024/01/16 07:57:47;;;;;;;3.25;1.60;;;1.80;69.10;;;;;;5091313;28;20025;-71
2024/01/16 08:00:13;;;;;;;4.32;1.77;;;1.80;69.20;;;;;;5090989;28;20345;-69
2024/01/16 08:02:39;;;;;;;5.90;1.95;;;1.90;68.60;;;;;;5091466;28;20121;-70
2024/01/16 08:05:05;;;;;;;3.22;1.50;;;1.90;68.60;;;;;;5091775;28;20028;-70
2024/01/16 08:07:34;;;;;;;3.70;1.83;;;2.00;68.30;;;;;;5091168;28;20024;-71
2024/01/16 08:10:06;;;;;;;4.65;1.48;;;2.10;68.00;;;;;;5091787;28;20069;-71
2024/01/16 08:12:31;;;;;;;4.35;1.58;;;2.20;67.60;;;;;;5091216;28;20032;-70
2024/01/16 08:14:57;;;;;;;3.63;1.67;;;2.30;66.80;;;;;;5090128;28;20452;-70
2024/01/16 08:17:23;;;;;;;4.80;1.55;;;2.40;66.70;;;;;;5090817;28;20443;-70
2024/01/16 08:19:48;;;;;;;4.60;1.80;;;2.50;66.00;;;;;;5095204;28;20077;-71
2024/01/16 08:22:14;;;;;;;5.38;1.90;;;2.60;65.70;;;;;;5113753;28;20381;-73
2024/01/16 08:24:39;;;;;;;3.90;1.70;;;2.60;65.30;;;;;;5114448;28;20023;-71
2024/01/16 08:27:05;;;;;;;4.28;1.60;;;2.60;65.40;;;;;;5115573;28;20067;-70
2024/01/16 08:29:31;;;;;;;4.07;1.55;;;2.70;65.20;;;;;;5115198;28;20031;-70
2024/01/16 08:31:56;;;;;;;3.20;1.40;;;2.80;64.60;;;;;;5095642;28;20016;-71
2024/01/16 08:34:22;;;;;;;8.05;1.90;;;2.80;64.30;;;;;;5094053;28;20404;-70
2024/01/16 08:36:48;;;;;;;6.88;1.60;;;2.80;63.90;;;;;;5094684;28;20021;-71
2024/01/16 08:39:13;;;;;;;3.05;1.60;;;2.80;63.50;;;;;;5094246;28;20020;-70
2024/01/16 08:41:39;;;;;;;3.83;1.45;;;2.90;62.60;;;;;;5094341;28;20032;-70
2024/01/16 08:44:04;;;;;;;3.53;1.40;;;2.90;62.10;;;;;;5094475;28;20020;-70
2024/01/16 08:46:31;;;;;;;2.50;1.52;;;2.90;62.20;;;;;;5093530;28;20024;-70
2024/01/16 08:48:57;;;;;;;2.55;1.30;;;2.80;62.50;;;;;;5092902;28;20136;-71
2024/01/16 08:51:23;;;;;;;3.92;1.70;;;2.80;62.60;;;;;;5093115;28;20378;-71
2024/01/16 08:53:48;;;;;;;3.25;1.45;;;2.80;62.40;;;;;;5094256;28;20086;-71
2024/01/16 08:56:14;;;;;;;2.58;1.42;;;2.80;62.30;;;;;;5093495;28;20016;-70
2024/01/16 08:58:40;;;;;;;4.15;1.45;;;2.80;62.30;;;;;;5094021;28;20035;-70
2024/01/16 09:01:05;;;;;;;2.88;1.55;;;2.80;62.60;;;;;;5094683;28;20044;-71
2024/01/16 09:03:34;;;;;;;4.47;1.63;;;2.80;62.70;;;;;;5093991;28;20081;-71
2024/01/16 09:06:01;;;;;;;5.07;1.65;;;2.80;62.20;;;;;;5094438;28;20097;-71
2024/01/16 09:08:27;;;;;;;2.72;1.50;;;2.80;62.00;;;;;;5093864;28;20032;-71
2024/01/16 09:10:53;;;;;;;4.38;1.60;;;2.80;62.10;;;;;;5094358;28;20035;-71
2024/01/16 09:13:20;;;;;;;4.72;1.63;;;2.90;61.70;;;;;;5093582;28;20453;-71
2024/01/16 09:15:46;;;;;;;4.30;1.63;;;2.90;61.90;;;;;;5094121;28;20024;-71
2024/01/16 09:18:12;;;;;;;2.70;1.58;;;2.90;61.70;;;;;;5093520;28;20499;-71
2024/01/16 09:20:38;;;;;;;3.00;1.60;;;2.90;61.60;;;;;;5093246;28;20036;-72
2024/01/16 09:23:04;;;;;;;2.42;1.40;;;2.90;61.30;;;;;;5093920;28;20020;-72
2024/01/16 09:25:30;;;;;;;4.20;1.60;;;2.90;60.40;;;;;;5093364;28;20028;-71
2024/01/16 09:27:55;;;;;;;2.47;1.25;;;2.90;60.60;;;;;;5093989;28;20060;-72
2024/01/16 09:30:22;;;;;;;5.13;1.17;;;3.00;60.10;;;;;;5092766;28;20032;-72
2024/01/16 09:32:48;;;;;;;4.28;1.48;;;3.00;60.30;;;;;;5093866;28;20028;-71
2024/01/16 09:35:14;;;;;;;2.42;1.48;;;3.00;60.30;;;;;;5093969;28;20135;-72
2024/01/16 09:37:40;;;;;;;2.35;1.40;;;3.00;60.40;;;;;;5093219;28;20122;-71
2024/01/16 09:40:07;;;;;;;3.53;1.63;;;3.00;60.80;;;;;;5094066;28;20103;-72
2024/01/16 09:42:32;;;;;;;5.43;1.60;;;3.10;61.40;;;;;;5093276;28;20024;-71
2024/01/16 09:45:02;;;;;;;3.05;1.55;;;3.10;61.70;;;;;;5092584;28;20065;-70
2024/01/16 09:47:33;;;;;;;3.90;1.50;;;3.10;62.00;;;;;;5093437;28;20039;-71
2024/01/16 09:50:02;;;;;;;2.97;1.70;;;3.20;61.60;;;;;;5093510;28;20028;-71
2024/01/16 09:52:29;;;;;;;4.57;1.60;;;3.20;61.90;;;;;;5093234;28;20039;-73
2024/01/16 09:54:55;;;;;;;5.28;1.60;;;3.20;62.10;;;;;;5093514;28;20098;-72
2024/01/16 09:57:25;;;;;;;4.90;1.60;;;3.30;61.90;;;;;;5093320;28;20433;-76
2024/01/16 09:59:54;;;;;;;5.15;1.73;;;3.40;61.80;;;;;;5093532;28;20137;-72
2024/01/16 10:02:21;;;;;;;5.68;1.77;;;3.50;61.80;;;;;;5093430;28;20028;-72
2024/01/16 10:04:47;;;;;;;3.25;1.20;;;3.60;61.30;;;;;;5093305;28;20024;-71
2024/01/16 10:07:15;;;;;;;2.22;1.27;;;3.70;60.80;;;;;;5093621;28;20036;-73
2024/01/16 10:09:41;;;;;;;6.30;1.40;;;3.80;60.50;;;;;;5092990;28;20100;-72
2024/01/16 10:12:07;;;;;;;3.80;1.42;;;4.00;60.20;;;;;;5093337;28;20111;-72
2024/01/16 10:14:34;;;;;;;3.25;1.73;;;4.10;60.10;;;;;;5092892;28;20020;-74
2024/01/16 10:17:13;;;;;;;5.88;1.70;;;4.20;59.20;;;;;;5102856;28;20035;-71
2024/01/16 10:19:49;;;;;;;4.80;1.60;;;4.30;59.00;;;;;;5113353;28;20028;-72
2024/01/16 10:22:24;;;;;;;4.28;1.52;;;4.30;58.80;;;;;;5113553;28;20399;-72
2024/01/16 10:25:03;;;;;;;5.30;2.00;;;4.30;58.90;;;;;;5113654;28;20180;-73
2024/01/16 10:27:31;;;;;;;5.60;1.70;;;4.40;59.00;;;;;;5112841;28;20529;-73
2024/01/16 10:29:57;;;;;;;6.38;1.45;;;4.50;59.00;;;;;;5113455;28;20024;-72
2024/01/16 10:32:29;;;;;;;5.07;1.42;;;4.60;58.50;;;;;;5113018;28;20468;-71
2024/01/16 10:35:08;;;;;;;3.33;1.38;;;4.60;57.90;;;;;;5113530;28;20069;-72
2024/01/16 10:37:54;;;;;;;3.90;1.52;;;4.70;57.60;;;;;;5112883;28;20027;-72
2024/01/16 10:40:24;;;;;;;5.45;1.63;;;4.70;57.50;;;;;;5103359;28;20028;-71
2024/01/16 10:43:00;;;;;;;5.15;1.85;;;4.70;57.30;;;;;;5092740;28;20365;-73
2024/01/16 10:45:26;;;;;;;3.53;1.30;;;4.80;57.10;;;;;;5092287;28;20322;-72
2024/01/16 10:48:18;;;;;;;4.50;1.75;;;4.80;56.80;;;;;;5092337;28;20058;-72
2024/01/16 10:50:46;;;;;;;4.88;2.55;;;4.90;56.70;;;;;;5089961;28;20042;-72
2024/01/16 10:53:16;;;;;;;3.25;1.52;;;4.90;56.60;;;;;;5092408;28;20028;-71
2024/01/16 10:55:51;;;;;;;2.63;1.27;;;4.90;56.50;;;;;;5092169;28;20023;-71
2024/01/16 10:58:21;;;;;;;4.55;1.73;;;4.90;56.40;;;;;;5092255;28;20077;-71
2024/01/16 11:00:51;;;;;;;3.55;1.63;;;4.90;56.60;;;;;;5091265;28;20117;-71
2024/01/16 11:03:22;;;;;;;7.78;2.67;;;4.90;57.00;;;;;;5092529;28;20028;-72
2024/01/16 11:05:48;;;;;;;4.05;1.60;;;4.90;56.50;;;;;;5091907;28;20056;-73
2024/01/16 11:08:16;;;;;;;3.42;1.60;;;5.00;56.50;;;;;;5092034;28;20036;-73
2024/01/16 11:10:43;;;;;;;2.75;1.50;;;5.00;56.10;;;;;;5091815;28;20106;-73
2024/01/16 11:13:10;;;;;;;2.92;1.35;;;5.00;56.00;;;;;;5092185;28;20052;-73
2024/01/16 11:15:38;;;;;;;3.03;1.35;;;5.10;55.90;;;;;;5091599;28;20107;-72
2024/01/16 11:18:11;;;;;;;3.15;1.30;;;5.10;55.50;;;;;;5091726;28;20114;-73
2024/01/16 11:20:37;;;;;;;4.50;1.38;;;5.20;55.50;;;;;;5091693;28;20103;-73
2024/01/16 11:23:03;;;;;;;3.63;1.50;;;5.30;55.40;;;;;;5090741;28;20392;-73
2024/01/16 11:25:33;;;;;;;4.82;1.40;;;5.40;55.10;;;;;;5091303;28;20095;-72
2024/01/16 11:28:13;;;;;;;5.38;1.48;;;5.40;54.60;;;;;;5091565;28;20082;-72
2024/01/16 11:30:40;;;;;;;4.40;1.52;;;5.50;54.30;;;;;;5090230;28;20024;-72
2024/01/16 11:33:06;;;;;;;2.85;1.30;;;5.60;54.10;;;;;;5090522;28;20077;-73
2024/01/16 11:35:37;;;;;;;4.88;1.85;;;5.60;53.90;;;;;;5091466;28;20024;-73
2024/01/16 11:38:16;;;;;;;4.10;1.20;;;5.50;54.00;;;;;;5091874;28;20020;-73
2024/01/16 11:40:42;;;;;;;4.10;1.50;;;5.50;53.60;;;;;;5089809;28;20058;-71
2024/01/16 11:43:32;;;;;;;5.55;1.70;;;5.50;53.70;;;;;;5090422;28;20115;-71
2024/01/16 11:45:58;;;;;;;2.87;1.20;;;5.60;52.80;;;;;;5091855;28;20103;-73
2024/01/16 11:48:24;;;;;;;3.78;1.20;;;5.60;52.30;;;;;;5091512;28;20411;-73
2024/01/16 11:50:50;;;;;;;5.45;1.48;;;5.60;52.50;;;;;;5091038;28;20032;-73
2024/01/16 11:53:39;;;;;;;3.75;1.10;;;5.60;51.80;;;;;;5091697;28;20028;-73
2024/01/16 11:56:19;;;;;;;2.65;1.30;;;5.50;51.80;;;;;;5095924;28;20025;-71
2024/01/16 11:59:09;;;;;;;6.85;1.65;;;5.60;52.10;;;;;;5094967;28;20476;-73
2024/01/16 12:01:36;;;;;;;6.00;1.05;;;5.70;51.90;;;;;;5095242;28;20096;-73
2024/01/16 12:04:09;;;;;;;6.28;1.50;;;5.70;51.10;;;;;;5095626;28;20081;-72
2024/01/16 12:06:35;;;;;;;2.42;1.00;;;5.70;51.20;;;;;;5095344;28;20028;-72
2024/01/16 12:09:17;;;;;;;4.05;1.27;;;5.80;50.80;;;;;;5095449;28;20067;-71
2024/01/16 12:11:45;;;;;;;2.70;1.40;;;5.80;51.00;;;;;;5095427;28;20115;-73
2024/01/16 12:14:14;;;;;;;4.10;1.17;;;5.80;50.40;;;;;;5095356;28;20381;-73
2024/01/16 12:16:40;;;;;;;1.88;1.00;;;5.80;50.60;;;;;;5095102;28;20047;-72
2024/01/16 12:19:09;;;;;;;2.85;1.10;;;5.70;50.70;;;;;;5095514;28;20024;-72
2024/01/16 12:21:39;;;;;;;2.35;1.00;;;5.50;51.40;;;;;;5095016;28;20024;-72
2024/01/16 12:24:05;;;;;;;5.88;1.55;;;5.50;51.20;;;;;;5095082;28;20056;-72
2024/01/16 12:26:31;;;;;;;3.15;1.40;;;5.50;51.70;;;;;;5097024;28;20031;-72
2024/01/16 12:28:58;;;;;;;4.07;1.33;;;5.50;52.10;;;;;;5115836;28;20080;-72
2024/01/16 12:31:24;;;;;;;4.07;1.27;;;5.40;51.90;;;;;;5115617;28;20038;-72
2024/01/16 12:33:51;;;;;;;3.53;1.25;;;5.40;51.90;;;;;;5115145;28;20022;-72
2024/01/16 12:36:17;;;;;;;5.35;1.08;;;5.40;52.10;;;;;;5115566;28;20034;-72
2024/01/16 12:38:42;;;;;;;2.20;0.90;;;5.30;52.10;;;;;;5113724;28;20051;-72
2024/01/16 12:41:10;;;;;;;3.08;1.20;;;5.20;52.30;;;;;;5115445;28;20085;-72
2024/01/16 12:43:39;;;;;;;4.53;1.10;;;5.10;51.70;;;;;;5114869;28;20024;-73
2024/01/16 12:46:06;;;;;;;9.13;1.20;;;5.00;51.30;;;;;;5115360;28;20019;-71
2024/01/16 12:48:32;;;;;;;4.60;1.42;;;5.00;50.90;;;;;;5109616;28;20440;-72
2024/01/16 12:51:02;;;;;;;2.90;0.77;;;4.90;50.80;;;;;;5094430;28;20060;-71
2024/01/16 12:53:28;;;;;;;3.22;1.10;;;4.80;50.90;;;;;;5094954;28;20468;-72
2024/01/16 12:56:00;;;;;;;4.03;0.82;;;4.80;50.80;;;;;;5094596;28;20035;-71